createdAt,value
2023-03-22T00:00:18.197Z,2622.6155
2023-03-22T00:01:19.606Z,2607.6155
2023-03-22T00:02:21.054Z,2652.0769
2023-03-22T00:03:22.510Z,2680.4614
2023-03-22T00:04:23.861Z,2699.3845
2023-03-22T00:05:25.289Z,2731.6155
2023-03-22T00:06:26.724Z,2777.0769
2023-03-22T00:07:28.153Z,2749.8462
2023-03-22T00:08:29.558Z,2721.6924
2023-03-22T00:09:30.974Z,2705.8462
2023-03-22T00:10:32.398Z,2704.0000
2023-03-22T00:11:33.806Z,2708.6155
2023-03-22T00:12:35.254Z,2701.2307
2023-03-22T00:13:36.681Z,2728.6155
2023-03-22T00:14:38.106Z,2771.1538
2023-03-22T00:15:39.560Z,2869.3845
2023-03-22T00:16:40.934Z,2906.7693
2023-03-22T00:17:42.344Z,2890.3845
2023-03-22T00:18:43.767Z,2925.7693
2023-03-22T00:19:45.202Z,2958.4614
2023-03-22T00:20:46.618Z,2981.0769
2023-03-22T00:21:48.034Z,2987.3076
2023-03-22T00:22:49.460Z,2976.3076
2023-03-22T00:23:50.886Z,2972.6155
2023-03-22T00:24:52.322Z,2979.5386
2023-03-22T00:25:53.718Z,2989.2307
2023-03-22T00:26:55.156Z,2982.3076
2023-03-22T00:27:56.576Z,3003.6155
2023-03-22T00:28:58.016Z,3008.7693
2023-03-22T00:29:59.547Z,2993.3845
2023-03-22T00:31:00.948Z,3000.9231
2023-03-22T00:32:02.291Z,2990.6155
2023-03-22T00:33:03.726Z,3019.1538
2023-03-22T00:34:05.132Z,3120.3076
2023-03-22T00:35:06.574Z,3223.2307
2023-03-22T00:36:07.988Z,3196.4614
2023-03-22T00:37:09.432Z,3135.3076
2023-03-22T00:38:10.841Z,3102.0769
2023-03-22T00:39:12.263Z,3084.3845
2023-03-22T00:40:13.676Z,3088.6924
2023-03-22T00:41:15.115Z,3104.3845
2023-03-22T00:42:16.528Z,3099.7693
2023-03-22T00:43:17.966Z,3099.9231
2023-03-22T00:44:19.377Z,3107.4614
2023-03-22T00:45:20.823Z,3114.2307
2023-03-22T00:46:22.320Z,3085.3076
2023-03-22T00:47:23.667Z,3082.3845
2023-03-22T00:48:25.111Z,3082.6924
2023-03-22T00:49:26.514Z,3084.8462
2023-03-22T00:50:27.926Z,3093.7693
2023-03-22T00:51:29.364Z,3102.8462
2023-03-22T00:52:30.767Z,3128.5386
2023-03-22T00:53:32.195Z,3142.6924
2023-03-22T00:54:33.619Z,3138.7693
2023-03-22T00:55:35.051Z,3125.2307
2023-03-22T00:56:36.488Z,3162.5386
2023-03-22T00:57:37.952Z,3209.2307
2023-03-22T00:58:39.317Z,3228.9231
2023-03-22T00:59:40.757Z,3244.3076
2023-03-22T01:00:42.518Z,3251.3845
2023-03-22T01:01:43.602Z,3213.2307
2023-03-22T01:02:45.038Z,3190.6924
2023-03-22T01:03:46.489Z,3186.7693
2023-03-22T01:04:47.887Z,3178.0000
2023-03-22T01:05:49.409Z,3188.0769
2023-03-22T01:06:50.820Z,3198.7693
2023-03-22T01:07:52.239Z,3195.0000
2023-03-22T01:08:53.672Z,3197.3845
2023-03-22T01:09:55.099Z,3190.6924
2023-03-22T01:10:56.521Z,3198.2307
2023-03-22T01:11:57.928Z,3176.6924
2023-03-22T01:12:59.360Z,3178.3845
2023-03-22T01:14:00.794Z,3183.9231
2023-03-22T01:15:02.242Z,3180.6924
2023-03-22T01:16:03.661Z,3172.8462
2023-03-22T01:17:05.077Z,3182.8462
2023-03-22T01:18:06.508Z,3161.3076
2023-03-22T01:19:07.918Z,3188.9231
2023-03-22T01:20:09.355Z,3165.7693
2023-03-22T01:21:10.766Z,3176.2307
2023-03-22T01:22:12.195Z,3184.7693
2023-03-22T01:23:13.631Z,3175.4614
2023-03-22T01:24:15.039Z,3185.8462
2023-03-22T01:25:16.448Z,3181.3076
2023-03-22T01:26:17.903Z,3184.2307
2023-03-22T01:27:19.306Z,3221.0769
2023-03-22T01:28:20.761Z,3261.7693
2023-03-22T01:29:22.161Z,3283.0000
2023-03-22T01:30:23.607Z,3268.2307
2023-03-22T01:31:25.007Z,3274.7693
2023-03-22T01:32:26.443Z,3245.6924
2023-03-22T01:33:27.873Z,3237.0769
2023-03-22T01:34:29.301Z,3251.2307
2023-03-22T01:35:30.781Z,3251.3845
2023-03-22T01:36:32.158Z,3257.3845
2023-03-22T01:37:33.593Z,3283.4614
2023-03-22T01:38:35.041Z,3268.1538
2023-03-22T01:39:36.441Z,3266.2307
2023-03-22T01:40:38.319Z,3285.7693
2023-03-22T01:41:39.289Z,3325.8462
2023-03-22T01:42:40.722Z,3343.2307
2023-03-22T01:43:42.196Z,3327.3845
2023-03-22T01:44:43.579Z,3321.4614
2023-03-22T01:45:45.003Z,3316.0769
2023-03-22T01:46:46.438Z,3296.0769
2023-03-22T01:47:47.846Z,3301.1538
2023-03-22T01:48:49.327Z,3325.7693
2023-03-22T01:49:50.705Z,3381.3076
2023-03-22T01:50:52.139Z,3375.8462
2023-03-22T01:51:53.557Z,3389.6155
2023-03-22T01:52:54.988Z,3350.8462
2023-03-22T01:53:56.423Z,3348.2307
2023-03-22T01:54:57.835Z,3328.9231
2023-03-22T01:55:59.260Z,3325.1538
2023-03-22T01:57:00.697Z,3326.8462
2023-03-22T01:58:02.101Z,3343.9231
2023-03-22T01:59:03.537Z,3332.9231
2023-03-22T02:00:04.945Z,3324.5386
2023-03-22T02:01:06.469Z,3329.6924
2023-03-22T02:02:07.797Z,3312.6155
2023-03-22T02:03:09.220Z,3302.9231
2023-03-22T02:04:10.656Z,3322.7693
2023-03-22T02:05:12.090Z,3319.7693
2023-03-22T02:06:13.515Z,3320.0769
2023-03-22T02:07:14.916Z,3329.3076
2023-03-22T02:08:16.345Z,3314.3076
2023-03-22T02:09:17.783Z,3307.0769
2023-03-22T02:10:19.201Z,3293.6924
2023-03-22T02:11:20.648Z,3283.3845
2023-03-22T02:12:22.055Z,3298.2307
2023-03-22T02:13:23.504Z,3292.6924
2023-03-22T02:14:27.191Z,3306.4614
2023-03-22T02:15:26.311Z,3350.3845
2023-03-22T02:16:27.752Z,3357.4614
2023-03-22T02:17:29.174Z,3351.0000
2023-03-22T02:18:30.568Z,3326.0000
2023-03-22T02:19:31.986Z,3322.6924
2023-03-22T02:20:33.393Z,3319.0000
2023-03-22T02:21:34.812Z,3294.0000
2023-03-22T02:22:36.210Z,3317.3076
2023-03-22T02:23:37.682Z,3295.7693
2023-03-22T02:24:39.073Z,3303.6924
2023-03-22T02:25:40.501Z,3317.9231
2023-03-22T02:26:41.913Z,3306.4614
2023-03-22T02:27:43.341Z,3299.6924
2023-03-22T02:28:44.828Z,3290.2307
2023-03-22T02:29:46.194Z,3295.5386
2023-03-22T02:30:47.606Z,3301.5386
2023-03-22T02:31:49.047Z,3299.3076
2023-03-22T02:32:50.437Z,3307.3845
2023-03-22T02:33:51.871Z,3312.8462
2023-03-22T02:34:53.274Z,3301.1538
2023-03-22T02:35:54.716Z,3296.9231
2023-03-22T02:36:56.124Z,3293.1538
2023-03-22T02:37:57.579Z,3285.3845
2023-03-22T02:38:58.961Z,3271.9231
2023-03-22T02:40:00.374Z,3281.3076
2023-03-22T02:41:01.797Z,3283.3076
2023-03-22T02:42:03.242Z,3263.0769
2023-03-22T02:43:04.632Z,3266.3845
2023-03-22T02:44:06.081Z,3272.0000
2023-03-22T02:45:07.472Z,3279.8462
2023-03-22T02:46:09.020Z,3268.6155
2023-03-22T02:47:10.318Z,3264.8462
2023-03-22T02:48:11.805Z,3265.6924
2023-03-22T02:49:13.193Z,3281.6924
2023-03-22T02:50:14.588Z,3320.3076
2023-03-22T02:51:15.996Z,3337.6924
2023-03-22T02:52:17.437Z,3313.9231
2023-03-22T02:53:18.849Z,3317.8462
2023-03-22T02:54:20.307Z,3287.6924
2023-03-22T02:55:21.675Z,3266.4614
2023-03-22T02:56:23.136Z,3281.8462
2023-03-22T02:57:24.528Z,3274.5386
2023-03-22T02:58:25.964Z,3267.9231
2023-03-22T02:59:27.373Z,3267.2307
2023-03-22T03:00:28.844Z,3275.7693
2023-03-22T03:01:30.295Z,3275.3076
2023-03-22T03:02:31.684Z,3274.3076
2023-03-22T03:03:33.071Z,3264.8462
2023-03-22T03:04:34.507Z,3258.9231
2023-03-22T03:05:35.906Z,3266.3076
2023-03-22T03:06:37.347Z,3265.1538
2023-03-22T03:07:38.774Z,3243.8462
2023-03-22T03:08:40.188Z,3243.3845
2023-03-22T03:09:41.623Z,3258.1538
2023-03-22T03:10:43.049Z,3242.4614
2023-03-22T03:11:44.472Z,3245.0769
2023-03-22T03:12:45.891Z,3231.5386
2023-03-22T03:13:47.307Z,3222.1538
2023-03-22T03:14:48.741Z,3231.2307
2023-03-22T03:15:50.155Z,3240.0000
2023-03-22T03:16:51.591Z,3221.8462
2023-03-22T03:17:52.999Z,3221.8462
2023-03-22T03:18:54.413Z,3218.2307
2023-03-22T03:19:55.830Z,3214.5386
2023-03-22T03:20:57.269Z,3203.5386
2023-03-22T03:21:58.680Z,3214.3076
2023-03-22T03:23:00.112Z,3203.3845
2023-03-22T03:24:01.544Z,3216.7693
2023-03-22T03:25:02.938Z,3194.0000
2023-03-22T03:26:04.352Z,3203.5386
2023-03-22T03:27:05.775Z,3194.3845
2023-03-22T03:28:07.238Z,3194.8462
2023-03-22T03:29:08.627Z,3198.6155
2023-03-22T03:30:10.079Z,3196.3845
2023-03-22T03:31:11.544Z,3188.1538
2023-03-22T03:32:12.905Z,3183.3845
2023-03-22T03:33:14.421Z,3182.3845
2023-03-22T03:34:15.757Z,3187.3076
2023-03-22T03:35:17.203Z,3189.1538
2023-03-22T03:36:18.596Z,3183.6155
2023-03-22T03:37:20.015Z,3171.0769
2023-03-22T03:38:21.442Z,3182.1538
2023-03-22T03:39:22.845Z,3173.4614
2023-03-22T03:40:24.280Z,3179.6924
2023-03-22T03:41:25.697Z,3172.2307
2023-03-22T03:42:27.121Z,3161.7693
2023-03-22T03:43:28.554Z,3173.5386
2023-03-22T03:44:29.988Z,3169.1538
2023-03-22T03:45:31.405Z,3166.0000
2023-03-22T03:46:32.829Z,3155.9231
2023-03-22T03:47:34.248Z,3164.0000
2023-03-22T03:48:35.687Z,3166.0769
2023-03-22T03:49:37.091Z,3158.2307
2023-03-22T03:50:38.868Z,3151.4614
2023-03-22T03:51:39.916Z,3139.8462
2023-03-22T03:52:41.376Z,3155.5386
2023-03-22T03:53:42.767Z,3143.0000
2023-03-22T03:54:44.204Z,3138.0769
2023-03-22T03:55:45.610Z,3139.6155
2023-03-22T03:56:47.033Z,3132.5386
2023-03-22T03:57:48.453Z,3124.4614
2023-03-22T03:58:49.876Z,3136.6924
2023-03-22T03:59:51.316Z,3136.0769
2023-03-22T04:00:52.751Z,3131.9231
2023-03-22T04:01:54.238Z,3128.4614
2023-03-22T04:02:55.576Z,3122.3845
2023-03-22T04:03:57.017Z,3122.8462
2023-03-22T04:04:58.431Z,3111.6155
2023-03-22T04:05:59.971Z,3105.9231
2023-03-22T04:07:01.273Z,3113.4614
2023-03-22T04:08:02.691Z,3105.6155
2023-03-22T04:09:04.138Z,3115.4614
2023-03-22T04:10:05.570Z,3097.0000
2023-03-22T04:11:06.976Z,3100.2307
2023-03-22T04:12:08.403Z,3097.6155
2023-03-22T04:13:09.794Z,3105.4614
2023-03-22T04:14:11.209Z,3077.0000
2023-03-22T04:15:12.638Z,3087.4614
2023-03-22T04:16:14.114Z,3079.0000
2023-03-22T04:17:15.485Z,3087.4614
2023-03-22T04:18:16.896Z,3080.3845
2023-03-22T04:19:18.317Z,3063.1538
2023-03-22T04:20:19.753Z,3060.4614
2023-03-22T04:21:21.212Z,3065.8462
2023-03-22T04:22:22.587Z,3042.5386
2023-03-22T04:23:24.033Z,3047.1538
2023-03-22T04:24:25.476Z,3068.3076
2023-03-22T04:25:26.859Z,3054.9231
2023-03-22T04:26:28.289Z,3034.4614
2023-03-22T04:27:29.714Z,3021.4614
2023-03-22T04:28:31.119Z,3023.5386
2023-03-22T04:29:32.546Z,3037.0769
2023-03-22T04:30:33.970Z,3026.1538
2023-03-22T04:31:35.395Z,3066.1538
2023-03-22T04:32:36.819Z,3147.5386
2023-03-22T04:33:38.251Z,3110.6924
2023-03-22T04:34:39.679Z,3030.6155
2023-03-22T04:35:41.154Z,2958.9231
2023-03-22T04:36:42.526Z,2948.9231
2023-03-22T04:37:43.949Z,2868.1538
2023-03-22T04:38:45.367Z,2848.5386
2023-03-22T04:39:46.801Z,2809.4614
2023-03-22T04:40:48.215Z,2730.4614
2023-03-22T04:41:49.635Z,2630.2307
2023-03-22T04:42:51.055Z,2530.1538
2023-03-22T04:43:52.520Z,2399.6924
2023-03-22T04:44:53.894Z,2434.9231
2023-03-22T04:45:55.365Z,2313.9231
2023-03-22T04:46:56.735Z,305.9231
2023-03-22T04:47:58.169Z,0.0000
2023-03-22T04:48:59.570Z,0.0000
2023-03-22T04:50:01.006Z,0.0000
2023-03-22T04:51:02.424Z,0.0000
2023-03-22T04:52:03.836Z,0.0000
2023-03-22T04:53:05.261Z,0.0000
2023-03-22T04:54:06.702Z,19.5385
2023-03-22T04:55:08.121Z,457.0000
2023-03-22T04:56:09.531Z,638.1539
2023-03-22T04:57:10.960Z,647.8461
2023-03-22T04:58:12.370Z,671.2308
2023-03-22T04:59:13.782Z,692.0769
2023-03-22T05:00:15.288Z,699.9231
